Time;durP1;ratioP1;P1;durP2;ratioP2;P2;SDS_P1;SDS_P2;PMS_P1;PMS_P2;Temp;Humidity;BMP_temperature;BMP_pressure;BME280_temperature;BME280_humidity;BME280_pressure;Samples;Min_cycle;Max_cycle;Signal;HPM_P1;HPM_P2
2024/02/19 00:00:58;;;;;;;;;;;7.50;99.90;;;;;;21322902;27;19915;-79
2024/02/19 00:11:00;;;;;;;;;;;7.50;99.90;;;;;;21319233;27;19919;-79
2024/02/19 00:21:02;;;;;;;;;;;7.50;99.90;;;;;;21317064;27;19968;-79
2024/02/19 00:31:03;;;;;;;;;;;7.50;99.90;;;;;;21319600;27;19915;-80
2024/02/19 00:41:03;;;;;;;;;;;7.60;99.90;;;;;;21296189;27;20120;-79
2024/02/19 00:51:04;;;;;;;;;;;7.60;99.90;;;;;;21292125;27;19911;-80
2024/02/19 01:01:05;;;;;;;;;;;7.60;99.90;;;;;;21298370;27;20001;-79
2024/02/19 01:11:06;;;;;;;;;;;7.70;99.90;;;;;;21317681;27;20010;-80
2024/02/19 01:21:06;;;;;;;;;;;7.90;99.90;;;;;;21300555;27;19928;-79
2024/02/19 01:31:08;;;;;;;;;;;7.90;99.90;;;;;;21289368;27;19915;-80
2024/02/19 01:41:08;;;;;;;;;;;8.00;99.90;;;;;;21321511;27;20397;-79
2024/02/19 01:51:09;;;;;;;;;;;8.10;99.90;;;;;;21350170;27;19942;-78
2024/02/19 02:01:14;;;;;;;;;;;8.10;99.90;;;;;;21354330;27;20297;-78
2024/02/19 02:11:15;;;;;;;;;;;8.20;99.90;;;;;;21357988;27;19923;-79
2024/02/19 02:21:16;;;;;;;;;;;8.20;99.90;;;;;;21344514;27;19972;-80
2024/02/19 02:31:17;;;;;;;;;;;8.20;99.90;;;;;;21362626;27;19952;-79
2024/02/19 02:41:19;;;;;;;;;;;8.30;99.90;;;;;;21346264;27;20171;-79
2024/02/19 02:51:20;;;;;;;;;;;8.30;99.90;;;;;;21337913;27;19962;-79
2024/02/19 03:01:26;;;;;;;;;;;8.40;99.90;;;;;;21338967;27;20293;-80
2024/02/19 03:11:27;;;;;;;;;;;8.30;99.90;;;;;;21303409;27;19915;-80
2024/02/19 03:21:28;;;;;;;;;;;8.30;99.90;;;;;;21310995;27;19922;-80
2024/02/19 03:31:28;;;;;;;;;;;8.30;99.90;;;;;;21332924;27;19959;-80
2024/02/19 03:41:29;;;;;;;;;;;8.30;99.90;;;;;;21326869;27;20452;-78
2024/02/19 03:51:30;;;;;;;;;;;8.30;99.90;;;;;;21297736;27;20412;-79
2024/02/19 04:01:30;;;;;;;;;;;8.20;99.90;;;;;;21317568;27;19953;-80
2024/02/19 04:11:31;;;;;;;;;;;8.30;99.90;;;;;;21298397;27;19916;-80
2024/02/19 04:21:32;;;;;;;;;;;8.30;99.90;;;;;;21288465;27;19923;-79
2024/02/19 04:31:32;;;;;;;;;;;8.20;99.90;;;;;;21319992;27;19911;-80
2024/02/19 04:41:33;;;;;;;;;;;8.20;99.90;;;;;;21330209;27;19973;-79
2024/02/19 04:51:33;;;;;;;;;;;8.20;99.90;;;;;;21347304;27;19918;-79
2024/02/19 05:01:34;;;;;;;;;;;8.20;99.90;;;;;;21315889;27;20293;-79
2024/02/19 05:11:35;;;;;;;;;;;8.20;99.90;;;;;;21324939;27;19971;-79
2024/02/19 05:21:40;;;;;;;;;;;8.10;99.90;;;;;;21311182;27;19919;-79
2024/02/19 05:31:41;;;;;;;;;;;8.10;99.90;;;;;;21304651;27;19911;-79
2024/02/19 05:41:43;;;;;;;;;;;8.10;99.90;;;;;;21345057;27;19962;-78
2024/02/19 05:51:44;;;;;;;;;;;8.20;99.90;;;;;;21331765;27;19942;-79
2024/02/19 06:01:45;;;;;;;;;;;8.20;99.90;;;;;;21319406;27;19915;-78
2024/02/19 06:11:45;;;;;;;;;;;8.30;99.90;;;;;;21335788;27;19946;-79
2024/02/19 06:21:46;;;;;;;;;;;8.30;99.90;;;;;;21346962;27;19915;-79
2024/02/19 06:31:49;;;;;;;;;;;8.30;99.90;;;;;;21337714;27;20056;-79
2024/02/19 06:41:50;;;;;;;;;;;8.30;99.90;;;;;;21360176;27;19915;-80
2024/02/19 06:51:51;;;;;;;;;;;8.30;99.90;;;;;;21344573;27;20380;-81
2024/02/19 07:01:51;;;;;;;;;;;8.30;99.90;;;;;;21300476;27;19915;-81
2024/02/19 07:11:52;;;;;;;;;;;8.20;99.90;;;;;;21302013;27;19915;-81
2024/02/19 07:21:52;;;;;;;;;;;8.30;99.90;;;;;;21296110;27;19915;-81
2024/02/19 07:31:53;;;;;;;;;;;8.30;99.90;;;;;;21298939;27;19911;-81
2024/02/19 07:41:54;;;;;;;;;;;8.40;99.90;;;;;;21284235;27;19922;-81
2024/02/19 07:51:55;;;;;;;;;;;8.50;99.90;;;;;;21294730;27;20287;-79
2024/02/19 08:01:55;;;;;;;;;;;8.70;99.90;;;;;;21297763;27;19922;-81
2024/02/19 08:11:57;;;;;;;;;;;8.90;99.90;;;;;;21304987;27;20013;-81
2024/02/19 08:21:58;;;;;;;;;;;9.00;99.90;;;;;;21317252;27;19915;-76
2024/02/19 08:32:01;;;;;;;;;;;8.90;99.90;;;;;;21338387;27;19907;-77
2024/02/19 08:42:02;;;;;;;;;;;8.90;99.90;;;;;;21306886;27;19919;-81
2024/02/19 08:52:03;;;;;;;;;;;8.90;99.90;;;;;;21301464;27;19964;-80
2024/02/19 09:02:04;;;;;;;;;;;9.00;99.90;;;;;;21300200;27;20373;-82
2024/02/19 09:12:06;;;;;;;;;;;9.10;99.90;;;;;;21254393;27;19916;-82
2024/02/19 09:22:07;;;;;;;;;;;9.20;99.90;;;;;;21245199;27;19922;-81
2024/02/19 09:32:08;;;;;;;;;;;9.30;99.90;;;;;;21240300;27;19900;-79
2024/02/19 09:42:09;;;;;;;;;;;9.40;99.90;;;;;;21246529;28;20274;-81
2024/02/19 09:52:11;;;;;;;;;;;9.40;99.90;;;;;;21257157;27;19912;-81
2024/02/19 10:02:18;;;;;;;;;;;9.30;99.90;;;;;;21273102;27;19922;-79
2024/02/19 10:12:19;;;;;;;;;;;9.30;99.90;;;;;;21335000;27;19919;-81
2024/02/19 10:22:20;;;;;;;;;;;9.30;99.90;;;;;;21361491;27;19983;-78
2024/02/19 10:32:21;;;;;;;;;;;9.40;99.90;;;;;;21354831;27;19911;-78
2024/02/19 10:42:23;;;;;;;;;;;9.40;99.90;;;;;;21343459;27;19936;-78
2024/02/19 10:52:26;;;;;;;;;;;9.60;99.90;;;;;;21329947;27;19911;-79
2024/02/19 11:02:29;;;;;;;;;;;9.50;99.90;;;;;;21337927;27;19920;-77
2024/02/19 11:12:29;;;;;;;;;;;9.60;99.90;;;;;;21320933;27;19918;-78
2024/02/19 11:22:30;;;;;;;;;;;9.70;99.90;;;;;;21283516;27;19982;-78
2024/02/19 11:32:31;;;;;;;;;;;10.00;99.90;;;;;;21295859;27;19912;-80
2024/02/19 11:42:32;;;;;;;;;;;10.30;99.90;;;;;;21313031;27;19938;-81
2024/02/19 11:52:33;;;;;;;;;;;10.30;99.90;;;;;;21283197;27;19911;-80
2024/02/19 12:02:41;;;;;;;;;;;10.90;99.90;;;;;;21307950;27;20375;-79
2024/02/19 12:12:43;;;;;;;;;;;10.70;99.90;;;;;;21296256;27;20374;-79
2024/02/19 12:22:44;;;;;;;;;;;10.90;99.90;;;;;;21272651;27;19922;-79
2024/02/19 12:32:45;;;;;;;;;;;12.40;99.90;;;;;;21303100;27;20346;-79
2024/02/19 12:42:46;;;;;;;;;;;11.80;99.90;;;;;;21294434;27;20048;-81
2024/02/19 12:52:47;;;;;;;;;;;10.80;99.90;;;;;;21279774;27;20355;-80
2024/02/19 13:02:47;;;;;;;;;;;10.60;99.90;;;;;;21299353;27;19916;-79
2024/02/19 13:12:50;;;;;;;;;;;10.50;99.90;;;;;;21314521;27;19915;-79
2024/02/19 13:22:51;;;;;;;;;;;10.60;99.90;;;;;;21310122;27;19953;-81
2024/02/19 13:32:51;;;;;;;;;;;10.70;99.90;;;;;;21321181;27;20297;-81
2024/02/19 13:42:53;;;;;;;;;;;10.70;99.90;;;;;;21323906;27;19954;-82
2024/02/19 13:52:54;;;;;;;;;;;10.90;99.90;;;;;;21313510;27;19911;-79
2024/02/19 14:02:55;;;;;;;;;;;10.90;99.90;;;;;;21343356;27;19922;-80
2024/02/19 14:12:56;;;;;;;;;;;11.60;99.90;;;;;;21262424;27;19949;-81
2024/02/19 14:22:57;;;;;;;;;;;13.00;99.90;;;;;;21239058;27;19916;-80
2024/02/19 14:32:57;;;;;;;;;;;12.90;99.90;;;;;;21268190;27;20008;-79
2024/02/19 14:43:00;;;;;;;;;;;11.50;99.90;;;;;;21283120;27;19923;-80
2024/02/19 14:53:01;;;;;;;;;;;11.50;99.90;;;;;;21282319;27;20463;-78
2024/02/19 15:03:04;;;;;;;;;;;11.60;99.90;;;;;;21280115;27;19915;-78
2024/02/19 15:13:04;;;;;;;;;;;11.70;99.90;;;;;;21356463;27;19957;-79
2024/02/19 15:23:05;;;;;;;;;;;11.50;99.90;;;;;;21349039;27;19915;-79
2024/02/19 15:33:06;;;;;;;;;;;11.40;99.90;;;;;;21319341;27;20034;-79
2024/02/19 15:43:06;;;;;;;;;;;11.40;99.90;;;;;;21339063;27;19915;-78
2024/02/19 15:53:14;;;;;;;;;;;11.30;99.90;;;;;;21390939;27;19911;-77
2024/02/19 16:03:17;;;;;;;;;;;11.20;99.90;;;;;;21419104;27;19979;-78
2024/02/19 16:13:19;;;;;;;;;;;11.10;99.90;;;;;;21345014;27;19946;-78
2024/02/19 16:23:19;;;;;;;;;;;10.90;99.90;;;;;;21350001;27;19960;-78
2024/02/19 16:33:21;;;;;;;;;;;10.80;99.90;;;;;;21336482;27;19911;-78
2024/02/19 16:43:22;;;;;;;;;;;10.60;99.90;;;;;;21341102;27;19933;-79
2024/02/19 16:53:23;;;;;;;;;;;10.40;99.90;;;;;;21340398;27;19911;-79
2024/02/19 17:03:24;;;;;;;;;;;10.20;99.90;;;;;;21360216;27;19915;-79
2024/02/19 17:13:26;;;;;;;;;;;10.10;99.90;;;;;;21304809;27;20514;-79
2024/02/19 17:23:27;;;;;;;;;;;10.00;99.90;;;;;;21319161;27;19919;-79
2024/02/19 17:33:27;;;;;;;;;;;9.90;99.90;;;;;;21358272;27;20330;-78
2024/02/19 17:43:28;;;;;;;;;;;10.00;99.90;;;;;;21343910;27;19922;-79
2024/02/19 17:53:28;;;;;;;;;;;9.90;99.90;;;;;;21325517;27;19911;-80
2024/02/19 18:03:29;;;;;;;;;;;9.90;99.90;;;;;;21364291;27;19954;-80
2024/02/19 18:13:30;;;;;;;;;;;9.70;99.90;;;;;;21338135;27;19960;-77
2024/02/19 18:23:31;;;;;;;;;;;9.70;99.90;;;;;;21356473;27;19915;-80
2024/02/19 18:33:32;;;;;;;;;;;9.50;99.90;;;;;;21312898;27;19911;-80
2024/02/19 18:43:33;;;;;;;;;;;9.30;99.90;;;;;;21326515;27;19923;-80
2024/02/19 18:53:33;;;;;;;;;;;9.40;99.90;;;;;;21320337;27;20259;-80
2024/02/19 19:03:34;;;;;;;;;;;9.50;99.90;;;;;;21322884;27;19960;-80
2024/02/19 19:13:40;;;;;;;;;;;9.40;99.90;;;;;;21307305;27;19950;-79
2024/02/19 19:23:44;;;;;;;;;;;9.40;99.90;;;;;;21300952;27;19915;-79
2024/02/19 19:33:45;;;;;;;;;;;9.20;99.90;;;;;;21294481;27;20266;-79
2024/02/19 19:43:46;;;;;;;;;;;9.30;99.90;;;;;;21302866;27;19922;-79
2024/02/19 19:53:46;;;;;;;;;;;9.20;99.90;;;;;;21299303;27;20274;-79
2024/02/19 20:03:48;;;;;;;;;;;9.10;99.90;;;;;;21292841;27;20019;-79
2024/02/19 20:13:49;;;;;;;;;;;8.80;99.90;;;;;;21245454;27;19915;-79
2024/02/19 20:23:51;;;;;;;;;;;8.70;99.90;;;;;;21233269;27;20387;-81
2024/02/19 20:33:52;;;;;;;;;;;8.70;99.90;;;;;;21179315;27;19941;-80
2024/02/19 20:43:53;;;;;;;;;;;8.60;99.90;;;;;;21180600;27;19916;-80
2024/02/19 20:53:53;;;;;;;;;;;8.50;99.90;;;;;;21182195;27;19911;-79
2024/02/19 21:03:54;;;;;;;;;;;8.60;99.90;;;;;;21179543;27;20050;-78
2024/02/19 21:13:55;;;;;;;;;;;8.50;99.90;;;;;;21228687;27;19924;-80
2024/02/19 21:23:55;;;;;;;;;;;8.50;99.90;;;;;;21235383;27;19923;-81
2024/02/19 21:33:56;;;;;;;;;;;8.40;99.90;;;;;;21214879;27;19918;-81
2024/02/19 21:43:57;;;;;;;;;;;8.30;99.90;;;;;;21245785;27;19915;-79
2024/02/19 21:53:57;;;;;;;;;;;8.20;99.90;;;;;;21270506;27;19963;-79
2024/02/19 22:04:00;;;;;;;;;;;8.30;99.90;;;;;;21273075;27;19915;-78
2024/02/19 22:14:02;;;;;;;;;;;8.30;99.90;;;;;;21362976;27;19919;-79
2024/02/19 22:24:03;;;;;;;;;;;8.30;99.90;;;;;;21360805;27;19922;-79
2024/02/19 22:34:04;;;;;;;;;;;8.40;99.90;;;;;;21364004;27;19918;-78
2024/02/19 22:44:04;;;;;;;;;;;8.40;99.90;;;;;;21352676;27;19958;-78
2024/02/19 22:54:05;;;;;;;;;;;8.40;99.90;;;;;;21349829;27;19911;-79
2024/02/19 23:04:07;;;;;;;;;;;8.40;99.90;;;;;;21290685;27;19946;-78
2024/02/19 23:14:07;;;;;;;;;;;8.30;99.90;;;;;;21195829;27;19916;-80
2024/02/19 23:24:08;;;;;;;;;;;8.20;99.90;;;;;;21185764;27;19926;-81
2024/02/19 23:34:09;;;;;;;;;;;8.20;99.90;;;;;;21228525;27;19918;-78
2024/02/19 23:44:10;;;;;;;;;;;8.20;99.90;;;;;;21271458;27;19988;-79
2024/02/19 23:54:10;;;;;;;;;;;8.20;99.90;;;;;;21217083;27;19919;-82
